createdAt,value
2017-11-22T00:01:18.424Z,9.70
2017-11-22T00:03:46.799Z,9.70
2017-11-22T00:06:14.402Z,9.70
2017-11-22T00:08:42.023Z,9.70
2017-11-22T00:11:09.604Z,9.40
2017-11-22T00:13:37.210Z,9.70
2017-11-22T00:16:04.798Z,9.70
2017-11-22T00:18:32.362Z,9.70
2017-11-22T00:20:59.955Z,9.70
2017-11-22T00:23:27.615Z,9.70
2017-11-22T00:25:55.197Z,9.70
2017-11-22T00:28:22.788Z,9.70
2017-11-22T00:30:50.383Z,9.70
2017-11-22T00:33:18.840Z,9.70
2017-11-22T00:35:46.392Z,9.70
2017-11-22T00:38:13.988Z,9.70
2017-11-22T00:40:41.573Z,9.70
2017-11-22T00:43:09.174Z,9.70
2017-11-22T00:45:37.552Z,9.80
2017-11-22T00:48:05.903Z,9.70
2017-11-22T00:50:33.478Z,9.70
2017-11-22T00:53:01.822Z,9.70
2017-11-22T00:55:29.386Z,9.70
2017-11-22T00:57:57.067Z,9.70
2017-11-22T01:00:25.402Z,9.70
2017-11-22T01:02:52.988Z,9.60
2017-11-22T01:05:20.571Z,9.70
2017-11-22T01:07:48.150Z,9.70
2017-11-22T01:10:16.515Z,9.60
2017-11-22T01:12:44.889Z,9.60
2017-11-22T01:15:12.498Z,9.60
2017-11-22T01:17:40.075Z,9.60
2017-11-22T01:20:08.456Z,9.60
2017-11-22T01:22:36.048Z,9.60
2017-11-22T01:25:03.658Z,9.60
2017-11-22T01:27:31.233Z,9.60
2017-11-22T01:29:58.820Z,9.60
2017-11-22T01:32:26.394Z,9.60
2017-11-22T01:34:53.980Z,9.70
2017-11-22T01:37:22.331Z,9.70
2017-11-22T01:39:49.931Z,9.70
2017-11-22T01:42:17.514Z,9.70
2017-11-22T01:44:45.064Z,9.80
2017-11-22T01:47:12.670Z,9.80
2017-11-22T01:49:40.238Z,9.80
2017-11-22T01:52:07.854Z,9.80
2017-11-22T01:54:35.470Z,9.90
2017-11-22T01:57:03.795Z,10.00
2017-11-22T01:59:31.355Z,9.90
2017-11-22T02:01:59.036Z,9.90
2017-11-22T02:04:26.601Z,10.00
2017-11-22T02:06:54.182Z,9.90
2017-11-22T02:09:21.898Z,10.00
2017-11-22T02:11:49.478Z,10.00
2017-11-22T02:14:17.153Z,10.00
2017-11-22T02:16:44.738Z,10.00
2017-11-22T02:19:12.314Z,10.00
2017-11-22T02:21:40.667Z,10.00
2017-11-22T02:24:08.221Z,10.00
2017-11-22T02:26:35.931Z,10.00
2017-11-22T02:29:03.507Z,10.00
2017-11-22T02:31:31.060Z,10.00
2017-11-22T02:33:58.637Z,10.00
2017-11-22T02:36:26.200Z,10.00
2017-11-22T02:38:53.795Z,10.00
2017-11-22T02:41:21.364Z,10.00
2017-11-22T02:43:48.961Z,10.00
2017-11-22T02:46:16.517Z,10.00
2017-11-22T02:48:44.107Z,10.00
2017-11-22T02:51:11.685Z,10.00
2017-11-22T02:53:39.265Z,10.00
2017-11-22T02:56:06.879Z,10.00
2017-11-22T02:58:34.473Z,10.00
2017-11-22T03:01:02.035Z,10.00
2017-11-22T03:03:29.648Z,10.00
2017-11-22T03:05:57.247Z,10.00
2017-11-22T03:08:24.850Z,10.00
2017-11-22T03:10:53.199Z,10.00
2017-11-22T03:13:20.748Z,9.90
2017-11-22T03:15:48.332Z,9.90
2017-11-22T03:18:15.900Z,9.90
2017-11-22T03:20:43.483Z,9.90
2017-11-22T03:23:11.080Z,10.00
2017-11-22T03:25:38.678Z,9.90
2017-11-22T03:28:06.259Z,10.00
2017-11-22T03:30:34.603Z,9.90
2017-11-22T03:33:02.227Z,10.00
2017-11-22T03:35:29.952Z,10.00
2017-11-22T03:37:57.523Z,10.00
2017-11-22T03:40:25.877Z,10.00
2017-11-22T03:42:53.458Z,10.00
2017-11-22T03:45:21.831Z,10.00
2017-11-22T03:47:49.405Z,10.00
2017-11-22T03:50:32.628Z,10.00
2017-11-22T03:53:06.476Z,10.10
2017-11-22T03:55:34.103Z,10.00
2017-11-22T03:58:06.144Z,10.10
2017-11-22T04:00:34.712Z,10.10
2017-11-22T04:03:07.994Z,10.10
2017-11-22T04:05:38.410Z,10.20
2017-11-22T04:08:07.674Z,10.20
2017-11-22T04:10:38.823Z,10.20
2017-11-22T04:13:07.170Z,10.20
2017-11-22T04:15:34.762Z,10.10
2017-11-22T04:18:03.126Z,10.20
2017-11-22T04:20:40.623Z,10.20
2017-11-22T04:23:08.971Z,10.20
2017-11-22T04:25:36.598Z,10.10
2017-11-22T04:28:04.170Z,10.20
2017-11-22T04:30:31.747Z,10.10
2017-11-22T04:32:59.485Z,10.20
2017-11-22T04:35:27.108Z,10.20
2017-11-22T04:37:54.715Z,10.20
2017-11-22T04:40:22.401Z,10.10
2017-11-22T04:42:49.964Z,10.10
2017-11-22T04:45:17.542Z,10.20
2017-11-22T04:47:45.086Z,10.20
2017-11-22T04:50:12.683Z,10.20
2017-11-22T04:52:41.012Z,10.20
2017-11-22T04:55:08.591Z,10.20
2017-11-22T04:57:36.212Z,10.30
2017-11-22T05:00:03.760Z,10.30
2017-11-22T05:02:32.111Z,10.30
2017-11-22T05:04:59.721Z,10.30
2017-11-22T05:07:27.324Z,10.40
2017-11-22T05:09:54.890Z,10.40
2017-11-22T05:12:22.492Z,10.40
2017-11-22T05:14:50.110Z,10.40
2017-11-22T05:17:17.666Z,10.40
2017-11-22T05:19:45.250Z,10.40
2017-11-22T05:22:12.864Z,10.40
2017-11-22T05:24:40.468Z,10.40
2017-11-22T05:27:08.831Z,10.40
2017-11-22T05:29:36.469Z,10.40
2017-11-22T05:32:04.882Z,10.40
2017-11-22T05:34:32.499Z,10.50
2017-11-22T05:37:00.094Z,10.50
2017-11-22T05:39:27.651Z,10.50
2017-11-22T05:41:55.246Z,10.50
2017-11-22T05:44:23.602Z,10.50
2017-11-22T05:46:51.192Z,10.50
2017-11-22T05:49:19.547Z,10.50
2017-11-22T05:51:47.131Z,10.50
2017-11-22T05:54:15.475Z,10.50
2017-11-22T05:56:43.027Z,10.50
2017-11-22T05:59:10.686Z,10.50
2017-11-22T06:01:38.285Z,10.40
2017-11-22T06:04:05.878Z,10.50
2017-11-22T06:06:33.459Z,10.50
2017-11-22T06:09:01.031Z,10.50
2017-11-22T06:11:28.595Z,10.50
2017-11-22T06:13:56.204Z,10.50
2017-11-22T06:16:24.547Z,10.40
2017-11-22T06:18:52.120Z,10.40
2017-11-22T06:21:19.698Z,10.40
2017-11-22T06:23:48.117Z,10.40
2017-11-22T06:26:15.724Z,10.40
2017-11-22T06:28:43.282Z,10.40
2017-11-22T06:31:10.875Z,10.40
2017-11-22T06:33:38.483Z,10.30
2017-11-22T06:36:06.091Z,10.30
2017-11-22T06:38:34.472Z,10.10
2017-11-22T06:41:02.804Z,10.10
2017-11-22T06:43:30.410Z,10.00
2017-11-22T06:45:58.738Z,10.00
2017-11-22T06:48:26.317Z,9.90
2017-11-22T06:50:53.969Z,9.90
2017-11-22T06:53:21.559Z,9.90
2017-11-22T06:55:49.167Z,9.90
2017-11-22T06:58:16.794Z,9.80
2017-11-22T07:00:45.121Z,9.80
2017-11-22T07:03:12.770Z,9.80
2017-11-22T07:05:40.331Z,9.80
2017-11-22T07:08:07.940Z,9.90
2017-11-22T07:10:35.500Z,9.90
2017-11-22T07:13:03.374Z,9.90
2017-11-22T07:15:30.954Z,9.90
2017-11-22T07:17:59.299Z,10.00
2017-11-22T07:20:27.143Z,10.00
2017-11-22T07:22:54.697Z,10.10
2017-11-22T07:25:22.328Z,10.10
2017-11-22T07:27:49.907Z,10.20
2017-11-22T07:30:17.502Z,10.20
2017-11-22T07:32:45.135Z,10.20
2017-11-22T07:35:12.718Z,10.30
2017-11-22T07:37:46.098Z,10.30
2017-11-22T07:40:13.664Z,10.30
2017-11-22T07:42:41.364Z,10.30
2017-11-22T07:45:09.000Z,10.40
2017-11-22T07:47:36.641Z,10.50
2017-11-22T07:50:04.210Z,10.50
2017-11-22T07:52:31.792Z,10.50
2017-11-22T07:54:59.383Z,10.60
2017-11-22T07:57:27.796Z,10.60
2017-11-22T07:59:55.352Z,10.60
2017-11-22T08:02:22.970Z,10.60
2017-11-22T08:04:50.549Z,10.60
2017-11-22T08:07:18.967Z,10.70
2017-11-22T08:09:46.526Z,10.70
2017-11-22T08:12:14.142Z,10.70
2017-11-22T08:14:41.710Z,10.80
2017-11-22T08:17:10.143Z,10.80
2017-11-22T08:19:37.735Z,10.80
2017-11-22T08:22:05.319Z,10.80
2017-11-22T08:24:33.811Z,10.80
2017-11-22T08:27:01.347Z,10.80
2017-11-22T08:29:28.948Z,10.80
2017-11-22T08:31:56.530Z,10.90
2017-11-22T08:34:24.105Z,10.90
2017-11-22T08:36:51.714Z,10.90
2017-11-22T08:39:19.330Z,10.90
2017-11-22T08:41:49.686Z,11.00
2017-11-22T08:44:17.243Z,11.10
2017-11-22T08:46:45.596Z,11.10
2017-11-22T08:49:13.171Z,11.10
2017-11-22T08:51:40.791Z,11.10
2017-11-22T08:54:14.828Z,11.10
2017-11-22T08:56:47.940Z,11.10
2017-11-22T08:59:15.500Z,11.10
2017-11-22T09:01:43.097Z,11.10
2017-11-22T09:04:10.692Z,11.20
2017-11-22T09:06:39.875Z,11.30
2017-11-22T09:09:07.453Z,11.30
2017-11-22T09:11:35.015Z,11.40
2017-11-22T09:14:02.659Z,11.40
2017-11-22T09:16:30.229Z,11.40
2017-11-22T09:18:59.695Z,11.50
2017-11-22T09:21:28.042Z,11.50
2017-11-22T09:23:55.653Z,11.50
2017-11-22T09:26:23.219Z,11.50
2017-11-22T09:28:50.838Z,11.60
2017-11-22T09:31:24.019Z,11.60
2017-11-22T09:33:57.033Z,11.60
2017-11-22T09:36:28.158Z,11.60
2017-11-22T09:38:55.805Z,11.60
2017-11-22T09:41:23.406Z,11.60
2017-11-22T09:43:51.738Z,11.60
2017-11-22T09:46:19.319Z,11.50
2017-11-22T09:48:46.937Z,11.60
2017-11-22T09:51:15.149Z,11.60
2017-11-22T09:53:42.712Z,11.60
2017-11-22T09:56:10.310Z,11.60
2017-11-22T09:58:38.663Z,11.70
2017-11-22T10:01:06.278Z,11.70
2017-11-22T10:03:33.878Z,11.70
2017-11-22T10:06:01.456Z,11.70
2017-11-22T10:08:29.826Z,11.70
2017-11-22T10:10:57.420Z,11.70
2017-11-22T10:13:25.003Z,11.70
2017-11-22T10:15:52.608Z,11.90
2017-11-22T10:18:35.075Z,12.00
2017-11-22T10:21:02.640Z,12.00
2017-11-22T10:23:30.204Z,12.20
2017-11-22T10:25:58.528Z,12.10
2017-11-22T10:28:29.585Z,12.00
2017-11-22T10:30:58.204Z,12.00
2017-11-22T10:33:26.450Z,12.00
2017-11-22T10:35:54.141Z,12.10
2017-11-22T10:38:21.716Z,12.50
2017-11-22T10:40:49.345Z,12.70
2017-11-22T10:43:16.874Z,13.00
2017-11-22T10:45:44.450Z,13.30
2017-11-22T10:48:12.796Z,13.60
2017-11-22T10:50:40.355Z,13.50
2017-11-22T10:53:08.024Z,13.50
2017-11-22T10:55:35.572Z,13.20
2017-11-22T10:58:03.165Z,13.20
2017-11-22T11:00:31.499Z,13.20
2017-11-22T11:02:59.124Z,13.20
2017-11-22T11:05:27.460Z,13.20
2017-11-22T11:07:55.694Z,13.10
2017-11-22T11:10:23.268Z,13.10
2017-11-22T11:12:50.840Z,12.90
2017-11-22T11:15:18.456Z,12.90
2017-11-22T11:17:46.812Z,12.90
2017-11-22T11:20:14.404Z,12.90
2017-11-22T11:22:42.003Z,13.00
2017-11-22T11:25:16.069Z,13.00
2017-11-22T11:27:45.262Z,13.10
2017-11-22T11:30:17.067Z,13.10
2017-11-22T11:32:49.485Z,13.00
2017-11-22T11:35:17.365Z,12.80
2017-11-22T11:37:45.697Z,13.00
2017-11-22T11:40:18.410Z,12.90
2017-11-22T11:42:46.708Z,13.20
2017-11-22T11:45:15.045Z,13.10
2017-11-22T11:47:42.624Z,13.10
2017-11-22T11:50:10.248Z,13.20
2017-11-22T11:52:43.080Z,13.40
2017-11-22T11:55:10.809Z,13.50
2017-11-22T11:57:38.424Z,13.50
2017-11-22T12:00:06.768Z,13.80
2017-11-22T12:02:40.278Z,13.70
2017-11-22T12:05:08.883Z,13.80
2017-11-22T12:07:39.679Z,13.90
2017-11-22T12:10:07.296Z,13.90
2017-11-22T12:12:35.821Z,14.40
2017-11-22T12:15:03.418Z,14.30
2017-11-22T12:17:33.928Z,14.30
2017-11-22T12:20:01.497Z,14.20
2017-11-22T12:22:48.944Z,14.30
2017-11-22T12:25:17.306Z,13.70
2017-11-22T12:27:44.950Z,13.70
2017-11-22T12:30:12.555Z,13.70
2017-11-22T12:32:43.982Z,13.60
2017-11-22T12:35:11.593Z,13.70
2017-11-22T12:37:39.155Z,13.80
2017-11-22T12:40:07.283Z,13.80
2017-11-22T12:42:34.888Z,13.80
2017-11-22T12:45:02.476Z,13.80
2017-11-22T12:47:30.047Z,13.80
2017-11-22T12:49:58.444Z,13.70
2017-11-22T12:52:26.815Z,13.50
2017-11-22T12:54:54.424Z,13.50
2017-11-22T12:57:22.011Z,13.40
2017-11-22T12:59:49.898Z,13.40
2017-11-22T13:02:18.348Z,13.20
2017-11-22T13:04:49.106Z,13.30
2017-11-22T13:07:21.235Z,13.20
2017-11-22T13:09:48.931Z,13.10
2017-11-22T13:12:16.539Z,13.10
2017-11-22T13:14:44.900Z,13.00
2017-11-22T13:17:15.271Z,13.00
2017-11-22T13:19:42.969Z,12.90
2017-11-22T13:22:10.589Z,13.00
2017-11-22T13:24:38.858Z,12.90
2017-11-22T13:27:06.460Z,13.00
2017-11-22T13:29:34.044Z,13.00
2017-11-22T13:32:01.655Z,12.90
2017-11-22T13:34:35.864Z,12.90
2017-11-22T13:37:07.256Z,12.90
2017-11-22T13:39:35.358Z,12.80
2017-11-22T13:42:02.955Z,12.90
2017-11-22T13:44:30.547Z,12.80
2017-11-22T13:46:58.128Z,12.80
2017-11-22T13:49:25.735Z,12.80
2017-11-22T13:51:53.308Z,12.70
2017-11-22T13:54:20.910Z,12.70
2017-11-22T13:56:48.512Z,12.70
2017-11-22T13:59:18.032Z,12.70
2017-11-22T14:01:47.200Z,12.70
2017-11-22T14:04:14.860Z,12.60
2017-11-22T14:06:42.597Z,12.60
2017-11-22T14:09:15.201Z,12.60
2017-11-22T14:11:44.984Z,12.60
2017-11-22T14:14:13.573Z,12.60
2017-11-22T14:16:41.156Z,12.50
2017-11-22T14:19:08.735Z,12.50
2017-11-22T14:21:37.070Z,12.40
2017-11-22T14:24:04.695Z,12.40
2017-11-22T14:26:32.293Z,12.40
2017-11-22T14:29:00.660Z,12.30
2017-11-22T14:31:28.293Z,12.30
2017-11-22T14:33:55.887Z,12.30
2017-11-22T14:36:23.506Z,12.20
2017-11-22T14:38:51.072Z,12.20
2017-11-22T14:41:18.623Z,12.10
2017-11-22T14:43:46.421Z,12.00
2017-11-22T14:46:14.039Z,12.00
2017-11-22T14:48:42.406Z,11.90
2017-11-22T14:51:10.062Z,11.90
2017-11-22T14:53:38.783Z,11.90
2017-11-22T14:56:08.958Z,11.80
2017-11-22T14:58:36.586Z,11.80
2017-11-22T15:01:04.162Z,11.70
2017-11-22T15:03:31.716Z,11.70
2017-11-22T15:05:59.292Z,11.60
2017-11-22T15:08:26.879Z,11.60
2017-11-22T15:10:54.463Z,11.50
2017-11-22T15:13:22.787Z,11.40
2017-11-22T15:15:50.362Z,11.30
2017-11-22T15:18:17.924Z,11.30
2017-11-22T15:20:45.540Z,11.30
2017-11-22T15:23:13.879Z,11.20
2017-11-22T15:25:41.467Z,11.20
2017-11-22T15:28:09.782Z,11.10
2017-11-22T15:30:37.364Z,11.10
2017-11-22T15:33:04.952Z,11.10
2017-11-22T15:35:33.300Z,11.00
2017-11-22T15:38:00.884Z,11.00
2017-11-22T15:40:28.499Z,10.90
2017-11-22T15:42:56.047Z,10.80
2017-11-22T15:45:23.636Z,10.70
2017-11-22T15:47:51.259Z,10.60
2017-11-22T15:50:19.632Z,10.50
2017-11-22T15:52:47.984Z,10.40
2017-11-22T15:55:15.568Z,10.40
2017-11-22T15:57:43.203Z,10.40
2017-11-22T16:00:10.758Z,10.40
2017-11-22T16:02:38.370Z,10.40
2017-11-22T16:05:08.268Z,10.40
2017-11-22T16:07:36.697Z,10.40
2017-11-22T16:10:04.287Z,10.40
2017-11-22T16:12:31.904Z,10.40
2017-11-22T16:15:00.373Z,10.50
2017-11-22T16:17:27.956Z,10.50
2017-11-22T16:19:55.578Z,10.40
2017-11-22T16:22:23.190Z,10.40
2017-11-22T16:24:50.791Z,10.40
2017-11-22T16:27:19.371Z,10.30
2017-11-22T16:29:46.956Z,10.30
2017-11-22T16:32:14.514Z,10.30
2017-11-22T16:34:42.105Z,10.20
2017-11-22T16:37:09.703Z,10.20
2017-11-22T16:39:37.282Z,10.10
2017-11-22T16:42:05.661Z,10.20
2017-11-22T16:44:34.041Z,10.20
2017-11-22T16:47:02.399Z,10.10
2017-11-22T16:49:29.966Z,10.10
2017-11-22T16:51:57.567Z,10.10
2017-11-22T16:54:25.165Z,10.00
2017-11-22T16:56:52.751Z,10.10
2017-11-22T16:59:20.315Z,10.10
2017-11-22T17:01:47.895Z,10.00
2017-11-22T17:04:16.267Z,10.00
2017-11-22T17:06:44.619Z,10.00
2017-11-22T17:09:12.214Z,9.90
2017-11-22T17:11:40.550Z,9.90
2017-11-22T17:14:08.129Z,9.90
2017-11-22T17:16:35.710Z,10.00
2017-11-22T17:19:04.077Z,10.00
2017-11-22T17:21:31.681Z,10.00
2017-11-22T17:23:59.255Z,9.90
2017-11-22T17:26:26.846Z,9.90
2017-11-22T17:28:54.444Z,9.90
2017-11-22T17:31:22.101Z,9.90
2017-11-22T17:33:50.448Z,9.90
2017-11-22T17:36:18.064Z,9.80
2017-11-22T17:38:45.626Z,9.80
2017-11-22T17:41:13.953Z,9.70
2017-11-22T17:43:41.565Z,9.70
2017-11-22T17:46:09.160Z,9.70
2017-11-22T17:48:36.776Z,9.70
2017-11-22T17:51:04.366Z,9.70
2017-11-22T17:53:31.979Z,9.70
2017-11-22T17:55:59.733Z,9.70
2017-11-22T17:58:27.388Z,9.70
2017-11-22T18:00:54.986Z,9.70
2017-11-22T18:03:22.755Z,9.70
2017-11-22T18:05:50.363Z,9.80
2017-11-22T18:08:17.999Z,9.70
2017-11-22T18:10:45.661Z,9.70
2017-11-22T18:13:13.679Z,9.70
2017-11-22T18:15:41.366Z,9.70
2017-11-22T18:18:09.739Z,9.80
2017-11-22T18:20:38.089Z,9.80
2017-11-22T18:23:05.708Z,9.80
2017-11-22T18:25:33.330Z,9.80
2017-11-22T18:28:00.917Z,10.00
2017-11-22T18:30:29.256Z,10.00
2017-11-22T18:32:57.365Z,9.90
2017-11-22T18:35:25.720Z,10.00
2017-11-22T18:37:53.297Z,10.00
2017-11-22T18:40:21.663Z,10.00
2017-11-22T18:42:49.268Z,9.90
2017-11-22T18:45:16.866Z,10.00
2017-11-22T18:47:44.491Z,10.00
2017-11-22T18:50:12.838Z,10.10
2017-11-22T18:52:41.184Z,10.00
2017-11-22T18:55:08.867Z,10.00
2017-11-22T18:57:36.535Z,10.00
2017-11-22T19:00:04.956Z,10.00
2017-11-22T19:02:32.544Z,10.00
2017-11-22T19:05:00.139Z,10.00
2017-11-22T19:07:28.508Z,10.10
2017-11-22T19:09:56.134Z,10.00
2017-11-22T19:12:24.096Z,10.00
2017-11-22T19:14:51.720Z,10.00
2017-11-22T19:17:19.307Z,10.20
2017-11-22T19:19:46.896Z,10.20
2017-11-22T19:22:14.518Z,10.30
2017-11-22T19:24:42.893Z,10.20
2017-11-22T19:27:11.294Z,10.10
2017-11-22T19:29:39.797Z,10.10
2017-11-22T19:32:07.392Z,10.10
2017-11-22T19:34:34.966Z,10.10
2017-11-22T19:37:03.690Z,10.10
2017-11-22T19:39:31.304Z,10.10
2017-11-22T19:41:58.922Z,10.10
2017-11-22T19:44:26.590Z,10.00
2017-11-22T19:46:54.245Z,10.10
2017-11-22T19:49:21.873Z,10.20
2017-11-22T19:51:50.217Z,10.10
2017-11-22T19:54:17.856Z,10.10
2017-11-22T19:56:45.481Z,10.10
2017-11-22T19:59:13.913Z,10.20
2017-11-22T20:01:41.646Z,10.20
2017-11-22T20:04:09.298Z,10.20
2017-11-22T20:06:36.923Z,10.10
2017-11-22T20:09:04.474Z,10.10
2017-11-22T20:11:32.064Z,8.70
2017-11-22T20:14:00.473Z,10.10
2017-11-22T20:16:28.125Z,10.10
2017-11-22T20:18:55.771Z,10.10
2017-11-22T20:21:24.257Z,10.20
2017-11-22T20:23:51.831Z,10.10
2017-11-22T20:26:19.429Z,10.10
2017-11-22T20:28:47.017Z,10.10
2017-11-22T20:31:14.899Z,10.00
2017-11-22T20:33:43.266Z,10.00
2017-11-22T20:36:11.720Z,10.00
2017-11-22T20:38:39.387Z,9.90
2017-11-22T20:41:07.067Z,9.80
2017-11-22T20:43:34.750Z,9.80
2017-11-22T20:46:03.212Z,9.80
2017-11-22T20:48:30.821Z,9.80
2017-11-22T20:50:59.527Z,9.80
2017-11-22T20:53:27.252Z,9.80
2017-11-22T20:55:55.719Z,9.80
2017-11-22T20:58:24.215Z,9.80
2017-11-22T21:00:51.787Z,9.80
2017-11-22T21:03:19.520Z,9.80
2017-11-22T21:05:47.265Z,9.70
2017-11-22T21:08:14.967Z,9.70
2017-11-22T21:10:43.354Z,9.60
2017-11-22T21:13:11.860Z,9.60
2017-11-22T21:15:40.251Z,9.60
2017-11-22T21:18:07.864Z,9.60
2017-11-22T21:20:35.530Z,9.60
2017-11-22T21:23:04.017Z,9.60
2017-11-22T21:25:33.664Z,9.60
2017-11-22T21:28:01.277Z,9.60
2017-11-22T21:30:28.874Z,9.70
2017-11-22T21:32:56.466Z,9.70
2017-11-22T21:35:24.102Z,9.80
2017-11-22T21:37:51.741Z,9.80
2017-11-22T21:40:19.494Z,9.90
2017-11-22T21:42:47.941Z,10.00
2017-11-22T21:45:15.527Z,10.00
2017-11-22T21:47:43.981Z,10.10
2017-11-22T21:50:11.656Z,10.10
2017-11-22T21:52:39.312Z,10.10
2017-11-22T21:55:06.930Z,10.10
2017-11-22T21:57:35.241Z,10.20
2017-11-22T22:00:03.449Z,10.20
2017-11-22T22:02:31.083Z,10.10
2017-11-22T22:05:00.414Z,10.10
2017-11-22T22:07:28.023Z,10.00
2017-11-22T22:09:56.221Z,10.10
2017-11-22T22:12:24.485Z,10.10
2017-11-22T22:14:53.495Z,10.10
2017-11-22T22:17:21.400Z,10.10
2017-11-22T22:19:49.110Z,10.00
2017-11-22T22:22:17.503Z,10.20
2017-11-22T22:24:45.230Z,10.20
2017-11-22T22:27:12.843Z,10.30
2017-11-22T22:29:40.424Z,10.30
2017-11-22T22:32:08.571Z,10.40
2017-11-22T22:34:36.351Z,10.50
2017-11-22T22:37:03.954Z,10.60
2017-11-22T22:39:31.531Z,10.60
2017-11-22T22:41:59.130Z,10.60
2017-11-22T22:44:26.717Z,10.50
2017-11-22T22:46:55.084Z,10.60
2017-11-22T22:49:22.670Z,10.60
2017-11-22T22:51:50.235Z,10.50
2017-11-22T22:54:18.068Z,10.60
2017-11-22T22:56:45.660Z,10.60
2017-11-22T22:59:14.028Z,10.60
2017-11-22T23:01:42.644Z,10.60
2017-11-22T23:04:10.339Z,10.60
2017-11-22T23:06:37.916Z,10.60
2017-11-22T23:09:05.936Z,10.60
2017-11-22T23:11:33.523Z,10.60
2017-11-22T23:14:01.139Z,10.70
2017-11-22T23:16:29.495Z,10.80
2017-11-22T23:18:58.332Z,10.80
2017-11-22T23:21:26.723Z,10.90
2017-11-22T23:23:54.390Z,10.90
2017-11-22T23:26:22.731Z,11.10
2017-11-22T23:28:51.092Z,11.10
2017-11-22T23:31:18.671Z,11.10
2017-11-22T23:33:47.046Z,11.00
2017-11-22T23:36:15.634Z,11.10
2017-11-22T23:38:43.971Z,11.10
2017-11-22T23:41:11.550Z,11.10
2017-11-22T23:43:39.148Z,11.20
2017-11-22T23:46:06.740Z,11.20
2017-11-22T23:48:34.324Z,11.20
2017-11-22T23:51:01.943Z,11.20
2017-11-22T23:53:29.518Z,11.40
2017-11-22T23:55:57.116Z,11.40
2017-11-22T23:58:24.683Z,11.40
